Terminal Aerodrome Forecast
Issued by NWS

Home | Current Version | Previous Version | Text Only | Print | Product List | Glossary On
Versions: 1 2 3 4 5 6 7 8 9 10 11 12 13 14 15 16 17 18
000
FTUS42 KMLB 291720
TAFTIX
TAF
KTIX 291720Z 2918/3018 13016G21KT P6SM BKN028 BKN250
     FM300100 12011KT P6SM SCT020
     FM301400 14013G20KT P6SM FEW025 SCT040 BKN080=

USA.gov is the U.S. government's official web portal to all federal, state and local government web resources and services.